Hopkinsville, KY

11:48 AM CDT on May 25, 2015 (GMT -0500)
Calvin Drive | | Change Station
CLOSE
Current Station
Personal Weather Station
Location: Hopkinsville, KY
Elevation: 541 ft
Nearby Weather Stations

Elev 541 ft 36.84 °N, 87.47 °W | Updated 3 seconds ago

Rain
Rain
71.1 °F
Feels Like 71.1 °F
N
3.8
Wind Variable Wind from SE
Gusts 5.4 mph

Today
High -- | Low -- °F
--% Chance of Precip.
Yesterday
High -- | Low -- °F
Precip. -- in
5:35 AM 7:58 PM
Waxing Crescent, 50% visible
Pressure 30.15 in
Visibility 5.0 miles
Clouds Mostly Cloudy 400 ft
Overcast 1600 ft
Dew Point 70 °F
Humidity 98%
Rainfall 0.66 in
Snow Depth Not available.
UV 3 out of 12
Pollen 3.20 out of 12
Air Quality Not available.
Flu Activity Sporadic
SPECI KHOP 251643Z AUTO 16007KT 5SM -RA BR BKN004 OVC016 20/19 A3015 RMK AO2 CIG 004V015 BKN V SCT

More Conditions Fewer Conditions

Pressure 30.15 in
Visibility 5.0 miles
Clouds Mostly Cloudy 400 ft
Overcast 1600 ft
Dew Point 70 °F
Humidity 98%
Rainfall 0.66 in
Snow Depth Not available.
UV 3 out of 12
Pollen 3.20 out of 12
Air Quality Not available.
Flu Activity Sporadic
SPECI KHOP 251643Z AUTO 16007KT 5SM -RA BR BKN004 OVC016 20/19 A3015 RMK AO2 CIG 004V015 BKN V SCT

More Conditions Fewer Conditions

10-Day Weather Forecast

Almanac

Astronomy

May. 25, 2015 Rise Set
Actual Time
Civil Twilight
Nautical Twilight
Astronomical Twilight
Moon
Length of Visible Light
Length of Day
Tomorrow will be .
, % of the Moon is Illuminated

Today's Extremes

State Highs State Lows

Community

WunderPhotos

Upload Photos

1,824,057 photos uploaded!

WunderBlogs® & News

Nearby

Air Quality

  Air Quality AQ Index Pollutant
Not available.

Snow Depth

Station Depth Elevation

Earthquake Activity

City Distance Mag. Time & Date
Minimum magnitude displayed is 2.5.

Coastal Water Temperatures

Place Temperature

Stations

Nearby Weather Stations

Station Location Temp. Windchill Dew Point Humidity Wind Precip. Elev Updated Type